Kansas City, Missouri
Current Conditions -  °F | °C
As of 10:54 AM on Sunday 23 Nov 2014 (Local Time) from KMKC Reporting Station
Haze Haze  
Wind Chill: 57°   Ceiling: 2800
Heat Index: 57°   Visibility: 5mi
Dew Point: 54°   Wind: 0mph
Humidity: 89%   Direction: NA
Pressure: 29.46"   Gusts: NA
Location:  39.1°N, 94.58°W
Report Text: KMKC 231654Z 00000KT 5SM BR FEW008 BKN028 OVC037 14/12 A2946 RMK AO2 SLP972 T01390122
Loading
Personal Weather Stations






























Interactive Weather Map New forecast layout! Learn more

10-Day Weather Forecast

Advertisements
Track Severe Weather on mobile